Time;durP1;ratioP1;P1;durP2;ratioP2;P2;SDS_P1;SDS_P2;PMS_P1;PMS_P2;Temp;Humidity;BMP_temperature;BMP_pressure;BME280_temperature;BME280_humidity;BME280_pressure;Samples;Min_cycle;Max_cycle;Signal;HPM_P1;HPM_P2
2023/10/04 00:00:29;;;;;;;1.00;0.90;;;;;;;;;;1028482;28;20132;-71
2023/10/04 00:01:00;;;;;;;2.00;1.17;;;;;;;;;;1031413;28;20502;-71
2023/10/04 00:01:31;;;;;;;13.35;2.03;;;;;;;;;;1029573;28;20026;-70
2023/10/04 00:02:01;;;;;;;1.40;1.27;;;;;;;;;;1027634;28;20031;-71
2023/10/04 00:02:32;;;;;;;7.55;3.55;;;;;;;;;;1025029;28;20027;-71
2023/10/04 00:03:04;;;;;;;16.58;1.80;;;;;;;;;;1025457;28;20050;-71
2023/10/04 00:03:35;;;;;;;1.25;1.13;;;;;;;;;;1027694;28;20438;-71
2023/10/04 00:04:06;;;;;;;1.33;1.23;;;;;;;;;;1031206;28;20034;-71
2023/10/04 00:04:38;;;;;;;0.95;0.85;;;;;;;;;;1026458;28;20078;-71
2023/10/04 00:05:10;;;;;;;1.15;1.10;;;;;;;;;;1027415;28;20053;-71
2023/10/04 00:05:41;;;;;;;0.40;0.40;;;;;;;;;;1031447;28;20053;-71
2023/10/04 00:06:12;;;;;;;0.63;0.63;;;;;;;;;;1031491;28;20517;-71
2023/10/04 00:06:42;;;;;;;7.22;3.08;;;;;;;;;;1027229;28;20022;-71
2023/10/04 00:07:13;;;;;;;0.55;0.52;;;;;;;;;;1025957;28;20097;-71
2023/10/04 00:07:45;;;;;;;1.48;1.38;;;;;;;;;;1019246;29;20610;-71
2023/10/04 00:08:15;;;;;;;1.38;0.98;;;;;;;;;;1015122;29;20032;-71
2023/10/04 00:08:47;;;;;;;2.10;1.88;;;;;;;;;;1017466;29;20026;-71
2023/10/04 00:09:18;;;;;;;1.83;1.73;;;;;;;;;;1021329;28;20023;-71
2023/10/04 00:09:49;;;;;;;1.35;1.25;;;;;;;;;;1025382;28;20055;-71
2023/10/04 00:10:23;;;;;;;2.42;1.45;;;;;;;;;;1029264;28;20023;-71
2023/10/04 00:10:54;;;;;;;0.90;0.85;;;;;;;;;;1026602;28;20034;-71
2023/10/04 00:11:26;;;;;;;7.03;1.65;;;;;;;;;;1026906;28;20019;-71
2023/10/04 00:11:59;;;;;;;10.32;1.55;;;;;;;;;;1023658;29;20570;-71
2023/10/04 00:12:30;;;;;;;1.02;0.52;;;;;;;;;;1024042;28;20027;-71
2023/10/04 00:13:01;;;;;;;1.10;0.90;;;;;;;;;;1021225;28;20024;-71
2023/10/04 00:13:33;;;;;;;2.40;0.57;;;;;;;;;;1021864;29;20083;-71
2023/10/04 00:14:05;;;;;;;2.45;0.85;;;;;;;;;;1022684;28;20019;-71
2023/10/04 00:14:35;;;;;;;1.02;1.02;;;;;;;;;;1025784;28;20586;-71
2023/10/04 00:15:09;;;;;;;0.25;0.25;;;;;;;;;;1025157;28;20050;-71
2023/10/04 00:15:40;;;;;;;1.50;0.98;;;;;;;;;;1025026;28;20125;-71
2023/10/04 00:16:11;;;;;;;4.43;2.70;;;;;;;;;;1022285;28;20050;-71
2023/10/04 00:16:41;;;;;;;0.70;0.65;;;;;;;;;;1024645;28;20416;-71
2023/10/04 00:17:12;;;;;;;0.77;0.75;;;;;;;;;;1019227;29;20044;-71
2023/10/04 00:17:43;;;;;;;2.33;2.15;;;;;;;;;;1018729;29;20027;-71
2023/10/04 00:18:15;;;;;;;1.33;1.23;;;;;;;;;;1023825;28;20077;-71
2023/10/04 00:18:45;;;;;;;0.77;0.77;;;;;;;;;;1027925;28;20034;-71
2023/10/04 00:19:17;;;;;;;1.73;1.23;;;;;;;;;;1030979;28;20053;-71
2023/10/04 00:19:48;;;;;;;0.73;0.73;;;;;;;;;;1027503;28;20023;-71
2023/10/04 00:20:20;;;;;;;1.48;1.00;;;;;;;;;;1026476;28;20446;-71
2023/10/04 00:20:52;;;;;;;12.13;1.17;;;;;;;;;;1026808;28;20027;-71
2023/10/04 00:21:24;;;;;;;0.70;0.68;;;;;;;;;;1019858;29;20421;-71
2023/10/04 00:21:57;;;;;;;0.35;0.35;;;;;;;;;;1023493;28;20038;-71
2023/10/04 00:22:28;;;;;;;0.98;0.95;;;;;;;;;;1023590;28;20030;-71
2023/10/04 00:22:59;;;;;;;1.63;1.52;;;;;;;;;;1027588;28;20033;-71
2023/10/04 00:23:30;;;;;;;0.52;0.52;;;;;;;;;;1025257;28;20021;-71
2023/10/04 00:24:00;;;;;;;0.98;0.68;;;;;;;;;;1027353;28;20033;-71
2023/10/04 00:24:31;;;;;;;3.20;1.80;;;;;;;;;;1023320;29;20023;-71
2023/10/04 00:25:08;;;;;;;0.50;0.50;;;;;;;;;;1019716;29;20024;-71
2023/10/04 00:25:39;;;;;;;1.10;0.50;;;;;;;;;;1024217;28;20027;-71
2023/10/04 00:26:10;;;;;;;2.35;1.17;;;;;;;;;;1027945;28;20026;-71
2023/10/04 00:26:42;;;;;;;0.90;0.70;;;;;;;;;;1027185;28;20026;-71
2023/10/04 00:27:13;;;;;;;1.25;0.77;;;;;;;;;;1027360;28;20062;-71
2023/10/04 00:27:44;;;;;;;1.05;0.93;;;;;;;;;;1025819;28;20019;-71
2023/10/04 00:28:14;;;;;;;0.10;0.10;;;;;;;;;;1025507;28;20026;-71
2023/10/04 00:28:46;;;;;;;0.20;0.20;;;;;;;;;;1026520;28;20452;-71
2023/10/04 00:29:17;;;;;;;0.73;0.68;;;;;;;;;;1027667;28;20419;-71
2023/10/04 00:29:49;;;;;;;0.38;0.38;;;;;;;;;;1031186;28;20073;-71
2023/10/04 00:30:20;;;;;;;3.13;2.17;;;;;;;;;;1024670;28;20034;-71
2023/10/04 00:30:50;;;;;;;1.17;1.13;;;;;;;;;;1024654;28;20026;-71
2023/10/04 00:31:21;;;;;;;1.65;0.80;;;;;;;;;;1022399;29;20522;-71
2023/10/04 00:31:52;;;;;;;2.85;1.90;;;;;;;;;;1023313;29;20027;-71
2023/10/04 00:32:23;;;;;;;3.67;2.85;;;;;;;;;;1023155;29;20658;-71
2023/10/04 00:32:54;;;;;;;0.47;0.40;;;;;;;;;;1023536;28;20031;-71
2023/10/04 00:33:26;;;;;;;2.47;1.17;;;;;;;;;;1027336;28;20371;-71
2023/10/04 00:33:56;;;;;;;0.55;0.50;;;;;;;;;;1029862;28;20564;-71
2023/10/04 00:34:28;;;;;;;1.92;1.13;;;;;;;;;;1029142;28;20051;-71
2023/10/04 00:34:59;;;;;;;1.52;1.27;;;;;;;;;;1029272;28;20402;-71
2023/10/04 00:35:30;;;;;;;0.68;0.68;;;;;;;;;;1028667;28;20053;-71
2023/10/04 00:36:04;;;;;;;29.67;2.80;;;;;;;;;;1031547;28;20026;-71
2023/10/04 00:36:35;;;;;;;0.60;0.60;;;;;;;;;;1029180;28;20082;-71
2023/10/04 00:37:07;;;;;;;1.73;1.63;;;;;;;;;;1027518;28;20174;-71
2023/10/04 00:37:42;;;;;;;0.22;0.22;;;;;;;;;;1031154;28;20585;-71
2023/10/04 00:38:15;;;;;;;2.72;1.17;;;;;;;;;;1029889;28;20089;-71
2023/10/04 00:38:45;;;;;;;10.23;2.97;;;;;;;;;;1030652;28;20041;-71
2023/10/04 00:39:18;;;;;;;12.18;4.70;;;;;;;;;;1031142;28;20034;-71
2023/10/04 00:39:49;;;;;;;3.13;2.35;;;;;;;;;;1024136;28;20074;-71
2023/10/04 00:40:21;;;;;;;11.77;3.58;;;;;;;;;;1023277;29;20408;-71
2023/10/04 00:40:52;;;;;;;5.43;2.70;;;;;;;;;;1023387;28;20075;-71
2023/10/04 00:41:22;;;;;;;23.13;3.35;;;;;;;;;;1023621;28;20037;-71
2023/10/04 00:41:55;;;;;;;4.88;3.40;;;;;;;;;;1027972;28;20050;-71
2023/10/04 00:42:26;;;;;;;5.78;2.22;;;;;;;;;;1028351;28;20085;-71
2023/10/04 00:42:59;;;;;;;6.75;2.88;;;;;;;;;;1028942;28;20131;-71
2023/10/04 00:43:31;;;;;;;3.70;2.28;;;;;;;;;;1025182;28;20082;-71
2023/10/04 00:44:03;;;;;;;9.15;4.18;;;;;;;;;;1029715;28;20042;-71
2023/10/04 00:44:35;;;;;;;12.23;3.55;;;;;;;;;;1029619;28;21249;-71
2023/10/04 00:45:09;;;;;;;24.17;8.07;;;;;;;;;;1027311;28;20470;-71
2023/10/04 00:45:42;;;;;;;12.05;4.13;;;;;;;;;;1028328;28;20499;-71
2023/10/04 00:46:12;;;;;;;5.53;2.85;;;;;;;;;;1030906;28;20058;-71
2023/10/04 00:46:45;;;;;;;10.27;6.18;;;;;;;;;;1031578;28;20030;-71
2023/10/04 00:47:17;;;;;;;21.30;5.40;;;;;;;;;;1024193;28;20082;-71
2023/10/04 00:47:50;;;;;;;22.48;5.82;;;;;;;;;;1026938;28;20034;-71
2023/10/04 00:48:31;;;;;;;37.75;6.68;;;;;;;;;;1022428;29;20035;-71
2023/10/04 00:49:02;;;;;;;31.88;7.95;;;;;;;;;;1025436;28;20031;-71
2023/10/04 00:49:33;;;;;;;23.75;7.43;;;;;;;;;;1026542;28;20031;-71
2023/10/04 00:50:14;;;;;;;15.25;5.15;;;;;;;;;;1030787;28;20037;-71
2023/10/04 00:50:45;;;;;;;7.47;2.08;;;;;;;;;;1032537;28;20461;-71
2023/10/04 00:51:22;;;;;;;1.98;1.80;;;;;;;;;;1032080;28;20033;-71
2023/10/04 00:51:52;;;;;;;2.35;1.88;;;;;;;;;;1030691;28;20515;-71
2023/10/04 00:52:23;;;;;;;2.42;2.05;;;;;;;;;;1032988;28;20022;-72
2023/10/04 00:52:57;;;;;;;5.18;2.38;;;;;;;;;;1027861;28;20097;-70
2023/10/04 00:53:29;;;;;;;1.90;1.73;;;;;;;;;;1026062;28;20197;-70
2023/10/04 00:54:00;;;;;;;1.52;1.40;;;;;;;;;;1027647;28;20368;-70
2023/10/04 00:54:31;;;;;;;6.10;1.83;;;;;;;;;;1031455;28;20133;-70
2023/10/04 00:55:04;;;;;;;4.75;2.88;;;;;;;;;;1031681;28;20110;-71
2023/10/04 00:55:44;;;;;;;7.68;2.58;;;;;;;;;;1032865;28;20022;-71
2023/10/04 00:56:16;;;;;;;1.35;1.25;;;;;;;;;;1033027;28;20085;-71
2023/10/04 00:56:48;;;;;;;1.67;1.58;;;;;;;;;;1028054;28;20034;-71
2023/10/04 00:57:22;;;;;;;2.08;1.77;;;;;;;;;;1024254;28;20027;-71
2023/10/04 00:57:55;;;;;;;1.27;1.17;;;;;;;;;;1023690;29;20395;-71
2023/10/04 00:58:28;;;;;;;0.63;0.63;;;;;;;;;;1020409;29;20119;-70
2023/10/04 00:59:03;;;;;;;2.45;2.25;;;;;;;;;;1023819;28;20029;-70
2023/10/04 00:59:35;;;;;;;0.50;0.50;;;;;;;;;;1022671;29;20023;-70
2023/10/04 01:00:09;;;;;;;0.50;0.50;;;;;;;;;;1024271;28;20364;-71
2023/10/04 01:00:41;;;;;;;0.45;0.45;;;;;;;;;;1026939;28;20027;-70
2023/10/04 01:01:14;;;;;;;1.55;1.08;;;;;;;;;;1027604;28;20058;-71
2023/10/04 01:01:45;;;;;;;1.85;0.85;;;;;;;;;;1032167;28;20030;-70
2023/10/04 01:02:16;;;;;;;0.70;0.70;;;;;;;;;;1031086;28;20022;-71
2023/10/04 01:02:48;;;;;;;0.38;0.38;;;;;;;;;;1029719;28;20537;-71
2023/10/04 01:03:24;;;;;;;2.25;1.55;;;;;;;;;;1027665;28;20118;-71
2023/10/04 01:03:55;;;;;;;1.00;0.90;;;;;;;;;;1028342;28;20441;-70
2023/10/04 01:04:27;;;;;;;1.85;1.08;;;;;;;;;;1028710;28;20424;-71
2023/10/04 01:04:58;;;;;;;0.40;0.40;;;;;;;;;;1029586;28;20032;-71
2023/10/04 01:05:30;;;;;;;0.98;0.98;;;;;;;;;;1028666;28;20027;-71
2023/10/04 01:06:01;;;;;;;4.50;2.17;;;;;;;;;;1026678;28;20069;-72
2023/10/04 01:06:32;;;;;;;2.60;1.45;;;;;;;;;;1023011;28;20117;-71
2023/10/04 01:07:06;;;;;;;1.10;1.00;;;;;;;;;;1026137;28;20038;-71
2023/10/04 01:07:38;;;;;;;2.78;2.15;;;;;;;;;;1027802;28;20030;-71
2023/10/04 01:08:09;;;;;;;10.20;1.48;;;;;;;;;;1032510;28;20025;-71
2023/10/04 01:08:42;;;;;;;1.65;1.58;;;;;;;;;;1028813;28;20070;-71
2023/10/04 01:09:14;;;;;;;0.75;0.75;;;;;;;;;;1027066;28;20513;-71
2023/10/04 01:09:46;;;;;;;4.18;2.90;;;;;;;;;;1026998;28;20422;-71
2023/10/04 01:10:20;;;;;;;0.32;0.32;;;;;;;;;;1025110;28;20026;-71
2023/10/04 01:10:54;;;;;;;0.70;0.70;;;;;;;;;;1026947;28;20030;-71
2023/10/04 01:11:24;;;;;;;0.85;0.75;;;;;;;;;;1027080;28;20031;-71
2023/10/04 01:11:55;;;;;;;4.75;1.20;;;;;;;;;;1027671;28;20160;-71
2023/10/04 01:12:25;;;;;;;0.35;0.35;;;;;;;;;;1028072;28;20665;-71
2023/10/04 01:12:56;;;;;;;0.68;0.68;;;;;;;;;;1028161;28;20023;-71
2023/10/04 01:13:27;;;;;;;3.75;0.73;;;;;;;;;;1029242;28;20118;-71
2023/10/04 01:14:18;;;;;;;1.38;1.13;;;;;;;;;;1031024;28;20565;-72
2023/10/04 01:14:49;;;;;;;6.00;1.35;;;;;;;;;;1029983;28;20027;-72
2023/10/04 01:15:59;;;;;;;1.95;0.93;;;;;;;;;;1030743;28;20023;-71
2023/10/04 01:16:35;;;;;;;1.13;1.05;;;;;;;;;;1025920;28;20030;-72
2023/10/04 01:17:11;;;;;;;0.20;0.20;;;;;;;;;;1027063;28;20121;-71
2023/10/04 01:17:43;;;;;;;1.38;1.30;;;;;;;;;;1027381;28;20031;-71
2023/10/04 01:18:15;;;;;;;1.70;1.60;;;;;;;;;;1028618;28;20077;-71
2023/10/04 01:18:46;;;;;;;1.92;1.27;;;;;;;;;;1028724;28;20390;-71
2023/10/04 01:19:17;;;;;;;0.28;0.28;;;;;;;;;;1027307;28;20031;-71
2023/10/04 01:19:49;;;;;;;3.40;1.30;;;;;;;;;;1028754;28;20026;-72
2023/10/04 01:20:27;;;;;;;6.30;1.65;;;;;;;;;;1029486;28;20056;-71
2023/10/04 01:20:59;;;;;;;1.70;0.90;;;;;;;;;;1031484;28;20081;-70
2023/10/04 01:21:30;;;;;;;3.53;1.77;;;;;;;;;;1030606;28;21184;-71
2023/10/04 01:22:03;;;;;;;7.40;2.60;;;;;;;;;;1032499;28;20478;-72
2023/10/04 01:22:34;;;;;;;0.47;0.47;;;;;;;;;;1031018;28;20478;-72
2023/10/04 01:23:12;;;;;;;1.35;1.25;;;;;;;;;;1029482;28;20145;-72
2023/10/04 01:23:47;;;;;;;0.38;0.25;;;;;;;;;;1027904;28;20027;-72
2023/10/04 01:24:19;;;;;;;1.65;0.93;;;;;;;;;;1023156;28;20062;-73
2023/10/04 01:24:49;;;;;;;1.73;1.63;;;;;;;;;;1027034;28;20034;-71
2023/10/04 01:25:20;;;;;;;1.30;1.20;;;;;;;;;;1029407;28;20510;-71
2023/10/04 01:25:51;;;;;;;5.20;3.95;;;;;;;;;;1029017;28;20034;-73
2023/10/04 01:26:25;;;;;;;3.58;2.25;;;;;;;;;;1028954;28;20094;-72
2023/10/04 01:26:56;;;;;;;2.53;1.70;;;;;;;;;;1028583;28;20058;-72
2023/10/04 01:27:27;;;;;;;4.57;2.17;;;;;;;;;;1024006;28;20137;-72
2023/10/04 01:27:59;;;;;;;2.08;1.88;;;;;;;;;;1023217;29;20538;-71
2023/10/04 01:28:30;;;;;;;5.45;3.78;;;;;;;;;;1029330;28;20026;-72
2023/10/04 01:29:11;;;;;;;2.75;2.38;;;;;;;;;;1027961;28;20018;-72
2023/10/04 01:29:42;;;;;;;0.28;0.28;;;;;;;;;;1031179;28;20503;-72
2023/10/04 01:30:13;;;;;;;1.13;0.88;;;;;;;;;;1029599;28;20110;-72
2023/10/04 01:30:46;;;;;;;3.97;2.92;;;;;;;;;;1030032;28;20547;-72
2023/10/04 01:31:17;;;;;;;0.73;0.73;;;;;;;;;;1028447;28;20039;-72
2023/10/04 01:31:49;;;;;;;3.45;2.63;;;;;;;;;;1025754;28;20031;-72
2023/10/04 01:32:23;;;;;;;0.40;0.40;;;;;;;;;;1029811;28;20178;-73
2023/10/04 01:32:59;;;;;;;1.48;1.38;;;;;;;;;;1030171;28;20061;-73
2023/10/04 01:33:30;;;;;;;1.17;1.08;;;;;;;;;;1027902;28;20499;-73
2023/10/04 01:34:01;;;;;;;2.60;1.73;;;;;;;;;;1028518;28;20034;-72
2023/10/04 01:34:32;;;;;;;2.63;1.75;;;;;;;;;;1027816;28;20117;-72
2023/10/04 01:35:05;;;;;;;6.53;0.95;;;;;;;;;;1025876;28;20030;-71
2023/10/04 01:35:36;;;;;;;2.13;0.80;;;;;;;;;;1028636;28;20030;-71
2023/10/04 01:36:07;;;;;;;3.70;3.17;;;;;;;;;;1027232;28;20031;-72
2023/10/04 01:36:38;;;;;;;6.40;2.03;;;;;;;;;;1027505;28;20023;-72
2023/10/04 01:37:10;;;;;;;2.22;2.10;;;;;;;;;;1027291;28;20035;-71
2023/10/04 01:37:42;;;;;;;10.93;1.58;;;;;;;;;;1030261;28;20029;-72
2023/10/04 01:38:13;;;;;;;2.97;2.78;;;;;;;;;;1031471;28;20041;-71
2023/10/04 01:38:44;;;;;;;4.97;2.50;;;;;;;;;;1032626;28;20022;-71
2023/10/04 01:39:18;;;;;;;9.43;2.33;;;;;;;;;;1030795;28;20565;-71
2023/10/04 01:39:49;;;;;;;1.38;1.13;;;;;;;;;;1027134;28;20574;-71
2023/10/04 01:40:25;;;;;;;0.77;0.75;;;;;;;;;;1026878;28;20037;-73
2023/10/04 01:40:56;;;;;;;0.65;0.65;;;;;;;;;;1028465;28;20019;-72
2023/10/04 01:41:28;;;;;;;1.42;1.33;;;;;;;;;;1028418;28;20105;-72
2023/10/04 01:42:01;;;;;;;1.13;1.10;;;;;;;;;;1027835;28;20025;-72
2023/10/04 01:42:32;;;;;;;0.68;0.68;;;;;;;;;;1023603;29;20551;-72
2023/10/04 01:43:27;;;;;;;1.73;1.00;;;;;;;;;;1022217;28;20039;-72
2023/10/04 01:44:02;;;;;;;1.13;1.00;;;;;;;;;;1026405;28;20652;-72
2023/10/04 01:44:38;;;;;;;0.75;0.75;;;;;;;;;;1031116;28;20494;-72
2023/10/04 01:45:17;;;;;;;0.77;0.73;;;;;;;;;;1026392;28;20097;-70
2023/10/04 01:45:53;;;;;;;2.38;0.73;;;;;;;;;;1027246;28;20490;-72
2023/10/04 01:46:24;;;;;;;1.83;1.67;;;;;;;;;;1026677;28;20081;-72
2023/10/04 01:46:56;;;;;;;1.88;1.77;;;;;;;;;;1027684;28;20161;-71
2023/10/04 01:47:26;;;;;;;0.10;0.10;;;;;;;;;;1026020;28;20114;-72
2023/10/04 01:47:57;;;;;;;1.33;1.25;;;;;;;;;;1027642;28;20022;-73
2023/10/04 01:48:34;;;;;;;2.40;2.25;;;;;;;;;;1031430;28;20042;-73
2023/10/04 01:49:08;;;;;;;1.17;0.73;;;;;;;;;;1031128;28;20022;-72
2023/10/04 01:49:43;;;;;;;3.05;1.00;;;;;;;;;;1031421;28;20030;-72
2023/10/04 01:50:16;;;;;;;1.42;0.70;;;;;;;;;;1027330;28;20582;-72
2023/10/04 01:50:52;;;;;;;4.10;1.80;;;;;;;;;;1026743;28;20554;-72
2023/10/04 01:51:26;;;;;;;2.00;0.77;;;;;;;;;;1029054;28;20549;-72
2023/10/04 01:51:58;;;;;;;0.45;0.45;;;;;;;;;;1031117;28;20128;-73
2023/10/04 01:52:30;;;;;;;2.00;1.77;;;;;;;;;;1026908;28;20027;-72
2023/10/04 01:53:01;;;;;;;2.00;0.95;;;;;;;;;;1030343;28;20590;-73
2023/10/04 01:53:37;;;;;;;0.40;0.40;;;;;;;;;;1027095;28;20030;-72
2023/10/04 01:54:10;;;;;;;1.48;1.13;;;;;;;;;;1026489;28;20165;-72
2023/10/04 01:54:41;;;;;;;0.20;0.20;;;;;;;;;;1024255;28;20034;-73
2023/10/04 01:55:19;;;;;;;0.70;0.52;;;;;;;;;;1026369;28;20034;-73
2023/10/04 01:55:57;;;;;;;2.28;2.10;;;;;;;;;;1022208;28;20027;-72
2023/10/04 01:56:37;;;;;;;1.45;1.25;;;;;;;;;;1024018;28;20550;-72
2023/10/04 01:57:19;;;;;;;1.23;1.13;;;;;;;;;;1026181;28;20070;-72
2023/10/04 01:57:52;;;;;;;4.88;1.20;;;;;;;;;;1031335;28;20105;-72
2023/10/04 01:58:23;;;;;;;0.10;0.10;;;;;;;;;;1030634;28;20022;-72
2023/10/04 01:58:54;;;;;;;2.60;2.40;;;;;;;;;;1031375;28;20061;-71
2023/10/04 01:59:28;;;;;;;2.97;0.93;;;;;;;;;;1028610;28;20019;-72
2023/10/04 02:00:01;;;;;;;0.82;0.52;;;;;;;;;;1030837;28;20025;-72
2023/10/04 02:00:33;;;;;;;1.45;1.35;;;;;;;;;;1030167;28;20156;-72
2023/10/04 02:01:06;;;;;;;0.17;0.17;;;;;;;;;;1031049;28;20018;-72
2023/10/04 02:01:37;;;;;;;1.23;1.13;;;;;;;;;;1029932;28;20034;-72
2023/10/04 02:02:09;;;;;;;1.00;0.95;;;;;;;;;;1030973;28;20030;-72
2023/10/04 02:02:40;;;;;;;0.43;0.43;;;;;;;;;;1028629;28;20053;-72
2023/10/04 02:03:11;;;;;;;0.98;0.65;;;;;;;;;;1023119;28;20031;-72
2023/10/04 02:03:44;;;;;;;10.13;1.10;;;;;;;;;;1021894;28;20031;-72
2023/10/04 02:04:15;;;;;;;2.92;1.13;;;;;;;;;;1022627;28;20426;-71
2023/10/04 02:04:52;;;;;;;0.60;0.60;;;;;;;;;;1023475;28;20037;-72
2023/10/04 02:05:33;;;;;;;0.13;0.13;;;;;;;;;;1027410;28;20109;-70
2023/10/04 02:06:05;;;;;;;0.73;0.73;;;;;;;;;;1030023;28;20145;-71
2023/10/04 02:06:35;;;;;;;1.60;0.82;;;;;;;;;;1032847;28;20094;-71
2023/10/04 02:07:07;;;;;;;2.80;0.70;;;;;;;;;;1032875;28;20029;-71
2023/10/04 02:07:41;;;;;;;1.25;1.15;;;;;;;;;;1029182;28;20022;-72
2023/10/04 02:08:12;;;;;;;0.55;0.55;;;;;;;;;;1024082;28;20046;-72
2023/10/04 02:08:45;;;;;;;0.80;0.80;;;;;;;;;;1025206;28;20034;-71
2023/10/04 02:09:16;;;;;;;0.35;0.35;;;;;;;;;;1026766;28;20031;-71
2023/10/04 02:09:47;;;;;;;1.25;1.15;;;;;;;;;;1024575;28;20054;-71
2023/10/04 02:10:18;;;;;;;3.50;2.85;;;;;;;;;;1026378;28;20041;-71
2023/10/04 02:10:50;;;;;;;0.98;0.98;;;;;;;;;;1021703;28;20031;-71
2023/10/04 02:11:22;;;;;;;1.55;1.45;;;;;;;;;;1021850;28;20047;-72
2023/10/04 02:11:54;;;;;;;3.53;1.45;;;;;;;;;;1026610;28;20572;-72
2023/10/04 02:12:25;;;;;;;0.22;0.22;;;;;;;;;;1023878;28;20035;-72
2023/10/04 02:12:57;;;;;;;1.67;1.05;;;;;;;;;;1027421;28;20105;-72
2023/10/04 02:13:28;;;;;;;0.25;0.25;;;;;;;;;;1026036;28;20819;-71
2023/10/04 02:13:58;;;;;;;1.60;1.13;;;;;;;;;;1022687;28;20022;-72
2023/10/04 02:14:33;;;;;;;0.52;0.52;;;;;;;;;;1025846;28;20031;-71
2023/10/04 02:15:06;;;;;;;3.33;2.47;;;;;;;;;;1024242;28;20023;-71
2023/10/04 02:15:39;;;;;;;0.75;0.70;;;;;;;;;;1022701;28;20372;-70
2023/10/04 02:16:16;;;;;;;0.43;0.43;;;;;;;;;;1026276;28;20023;-73
2023/10/04 02:16:49;;;;;;;1.35;1.30;;;;;;;;;;1027234;28;20082;-72
2023/10/04 02:17:22;;;;;;;2.55;1.95;;;;;;;;;;1022863;29;20054;-72
2023/10/04 02:17:58;;;;;;;0.10;0.10;;;;;;;;;;1019353;29;20468;-70
2023/10/04 02:18:29;;;;;;;1.98;1.63;;;;;;;;;;1022815;28;20031;-71
2023/10/04 02:19:01;;;;;;;2.25;1.10;;;;;;;;;;1027859;28;20530;-72
2023/10/04 02:19:32;;;;;;;16.45;3.60;;;;;;;;;;1029883;28;20141;-73
2023/10/04 02:20:05;;;;;;;3.58;0.75;;;;;;;;;;1029866;28;20026;-73
2023/10/04 02:20:37;;;;;;;1.05;1.05;;;;;;;;;;1027655;28;20034;-72
2023/10/04 02:21:08;;;;;;;1.60;1.20;;;;;;;;;;1025610;28;20097;-71
2023/10/04 02:21:38;;;;;;;2.70;1.00;;;;;;;;;;1029905;28;20513;-72
2023/10/04 02:22:15;;;;;;;2.20;1.80;;;;;;;;;;1032345;28;20031;-72
2023/10/04 02:22:49;;;;;;;0.32;0.32;;;;;;;;;;1031768;28;20026;-70
2023/10/04 02:23:19;;;;;;;0.20;0.20;;;;;;;;;;1028125;28;20506;-71
2023/10/04 02:23:50;;;;;;;7.28;1.33;;;;;;;;;;1025996;28;20023;-71
2023/10/04 02:24:22;;;;;;;9.02;2.20;;;;;;;;;;1026750;28;20027;-71
2023/10/04 02:24:55;;;;;;;3.08;2.55;;;;;;;;;;1026797;28;20019;-71
2023/10/04 02:25:26;;;;;;;3.78;1.38;;;;;;;;;;1031733;28;20156;-71
2023/10/04 02:25:57;;;;;;;1.67;1.42;;;;;;;;;;1033143;28;20180;-71
2023/10/04 02:26:28;;;;;;;2.08;1.80;;;;;;;;;;1029755;28;20030;-70
2023/10/04 02:27:01;;;;;;;4.38;2.22;;;;;;;;;;1026762;28;20473;-70
2023/10/04 02:27:32;;;;;;;1.83;1.67;;;;;;;;;;1027793;28;20376;-72
2023/10/04 02:28:11;;;;;;;2.65;1.73;;;;;;;;;;1026325;28;20142;-71
2023/10/04 02:28:42;;;;;;;0.73;0.73;;;;;;;;;;1028301;28;20027;-73
2023/10/04 02:29:13;;;;;;;3.05;1.42;;;;;;;;;;1031375;28;20026;-72
2023/10/04 02:29:45;;;;;;;2.60;1.80;;;;;;;;;;1029722;28;20891;-74
2023/10/04 02:30:21;;;;;;;0.47;0.40;;;;;;;;;;1027814;28;20031;-72
2023/10/04 02:30:55;;;;;;;2.65;1.55;;;;;;;;;;1028325;28;20433;-72
2023/10/04 02:31:29;;;;;;;1.65;0.95;;;;;;;;;;1030040;28;20395;-72
2023/10/04 02:32:06;;;;;;;1.20;1.10;;;;;;;;;;1026993;28;20173;-71
2023/10/04 02:32:37;;;;;;;16.88;2.88;;;;;;;;;;1026160;28;20041;-72
2023/10/04 02:33:14;;;;;;;1.65;1.55;;;;;;;;;;1026282;28;20505;-72
2023/10/04 02:33:47;;;;;;;0.30;0.30;;;;;;;;;;1028042;28;20507;-71
2023/10/04 02:34:19;;;;;;;1.27;1.17;;;;;;;;;;1030407;28;20027;-72
2023/10/04 02:34:50;;;;;;;4.63;2.33;;;;;;;;;;1029454;28;20145;-71
2023/10/04 02:35:26;;;;;;;3.17;1.17;;;;;;;;;;1030143;28;20080;-72
2023/10/04 02:35:58;;;;;;;1.70;1.15;;;;;;;;;;1026471;28;20062;-72
2023/10/04 02:36:30;;;;;;;2.08;1.00;;;;;;;;;;1027180;28;20031;-71
2023/10/04 02:37:02;;;;;;;3.58;3.28;;;;;;;;;;1027688;28;20073;-71
2023/10/04 02:37:32;;;;;;;2.28;1.58;;;;;;;;;;1026644;28;20126;-71
2023/10/04 02:38:16;;;;;;;1.00;0.68;;;;;;;;;;1025260;28;20544;-71
2023/10/04 02:38:47;;;;;;;3.45;2.95;;;;;;;;;;1027539;28;20042;-72
2023/10/04 02:39:18;;;;;;;13.02;1.60;;;;;;;;;;1030598;28;20125;-73
2023/10/04 02:39:52;;;;;;;1.85;1.75;;;;;;;;;;1030557;28;20034;-71
2023/10/04 02:40:32;;;;;;;15.82;1.80;;;;;;;;;;1029652;28;20475;-71
2023/10/04 02:41:05;;;;;;;4.38;2.30;;;;;;;;;;1027074;28;20030;-72
2023/10/04 02:41:36;;;;;;;5.35;2.55;;;;;;;;;;1028783;28;20119;-73
2023/10/04 02:42:09;;;;;;;2.88;1.13;;;;;;;;;;1026629;28;20538;-72
2023/10/04 02:42:40;;;;;;;7.38;4.38;;;;;;;;;;1029513;28;20479;-72
2023/10/04 02:43:11;;;;;;;6.65;1.83;;;;;;;;;;1029086;28;20574;-71
2023/10/04 02:43:42;;;;;;;3.25;1.90;;;;;;;;;;1029264;28;20039;-70
2023/10/04 02:44:17;;;;;;;0.47;0.47;;;;;;;;;;1026900;28;20031;-71
2023/10/04 02:44:48;;;;;;;5.00;1.20;;;;;;;;;;1027894;28;20023;-72
2023/10/04 02:45:19;;;;;;;0.47;0.47;;;;;;;;;;1026605;28;20031;-72
2023/10/04 02:45:50;;;;;;;1.15;1.02;;;;;;;;;;1028881;28;20038;-71
2023/10/04 02:46:21;;;;;;;0.47;0.47;;;;;;;;;;1025524;28;20550;-71
2023/10/04 02:46:51;;;;;;;1.20;1.08;;;;;;;;;;1025931;28;20030;-72
2023/10/04 02:47:25;;;;;;;0.20;0.10;;;;;;;;;;1030958;28;20026;-73
2023/10/04 02:47:56;;;;;;;28.70;2.50;;;;;;;;;;1033177;28;20101;-72
2023/10/04 02:48:30;;;;;;;1.17;1.08;;;;;;;;;;1031379;28;20069;-73
2023/10/04 02:49:01;;;;;;;8.23;0.95;;;;;;;;;;1027128;28;20058;-73
2023/10/04 02:49:40;;;;;;;5.43;3.38;;;;;;;;;;1027183;28;20035;-74
2023/10/04 02:50:11;;;;;;;1.65;1.15;;;;;;;;;;1026072;28;20037;-72
2023/10/04 02:50:42;;;;;;;0.68;0.47;;;;;;;;;;1026175;28;20053;-72
2023/10/04 02:51:13;;;;;;;1.50;1.02;;;;;;;;;;1026747;28;20027;-72
2023/10/04 02:51:45;;;;;;;1.30;1.20;;;;;;;;;;1025838;28;20482;-73
2023/10/04 02:52:15;;;;;;;7.75;2.65;;;;;;;;;;1025960;28;20054;-72
2023/10/04 02:52:46;;;;;;;7.30;1.85;;;;;;;;;;1026733;28;20038;-73
2023/10/04 02:53:19;;;;;;;4.05;2.92;;;;;;;;;;1024440;28;20606;-72
2023/10/04 02:53:50;;;;;;;2.67;2.47;;;;;;;;;;1026302;28;20050;-72
2023/10/04 02:54:23;;;;;;;1.60;1.17;;;;;;;;;;1026423;28;20038;-73
2023/10/04 02:54:54;;;;;;;63.08;3.38;;;;;;;;;;1029918;28;20026;-73
2023/10/04 02:55:25;;;;;;;16.67;2.50;;;;;;;;;;1030571;28;20058;-72
2023/10/04 02:55:57;;;;;;;0.35;0.35;;;;;;;;;;1029357;28;20525;-74
2023/10/04 02:56:28;;;;;;;0.30;0.30;;;;;;;;;;1029646;28;20081;-75
2023/10/04 02:57:00;;;;;;;0.00;0.00;;;;;;;;;;1022459;28;20574;-71
2023/10/04 02:57:31;;;;;;;1.08;0.85;;;;;;;;;;1022485;28;20747;-73
2023/10/04 02:58:06;;;;;;;1.27;1.17;;;;;;;;;;1021919;28;20069;-72
2023/10/04 02:58:36;;;;;;;21.65;1.85;;;;;;;;;;1028841;28;20064;-72
2023/10/04 02:59:07;;;;;;;0.52;0.52;;;;;;;;;;1021982;28;20034;-73
2023/10/04 02:59:38;;;;;;;7.45;2.05;;;;;;;;;;1023709;28;20038;-72
2023/10/04 03:00:17;;;;;;;3.95;2.45;;;;;;;;;;1024773;28;20042;-72
2023/10/04 03:00:49;;;;;;;0.63;0.57;;;;;;;;;;1025781;28;20033;-73
2023/10/04 03:01:26;;;;;;;0.30;0.30;;;;;;;;;;1029827;28;20022;-75
2023/10/04 03:01:58;;;;;;;6.93;2.35;;;;;;;;;;1030923;28;20026;-74
2023/10/04 03:02:29;;;;;;;2.42;2.22;;;;;;;;;;1030555;28;20029;-73
2023/10/04 03:03:00;;;;;;;2.47;1.55;;;;;;;;;;1029109;28;20070;-72
2023/10/04 03:03:31;;;;;;;2.55;1.92;;;;;;;;;;1029701;28;20592;-74
2023/10/04 03:04:08;;;;;;;0.95;0.55;;;;;;;;;;1025787;28;20712;-72
2023/10/04 03:04:41;;;;;;;3.58;2.20;;;;;;;;;;1025971;28;20553;-72
2023/10/04 03:05:20;;;;;;;8.48;0.90;;;;;;;;;;1024962;28;20050;-75
2023/10/04 03:05:51;;;;;;;3.78;1.55;;;;;;;;;;1025128;28;20429;-73
2023/10/04 03:06:24;;;;;;;3.67;1.38;;;;;;;;;;1025994;28;20076;-72
2023/10/04 03:06:56;;;;;;;10.60;1.63;;;;;;;;;;1024651;28;20035;-74
2023/10/04 03:07:27;;;;;;;5.32;2.08;;;;;;;;;;1025999;28;20023;-75
2023/10/04 03:08:06;;;;;;;1.55;1.45;;;;;;;;;;1028051;28;20399;-73
2023/10/04 03:08:37;;;;;;;4.45;3.67;;;;;;;;;;1028006;28;20039;-72
2023/10/04 03:09:09;;;;;;;3.55;1.80;;;;;;;;;;1027281;28;20588;-73
2023/10/04 03:09:43;;;;;;;4.35;2.67;;;;;;;;;;1025643;28;20031;-71
2023/10/04 03:10:23;;;;;;;8.52;6.68;;;;;;;;;;1029577;28;20132;-76
2023/10/04 03:10:55;;;;;;;;;;;;;;;;;;1030605;28;20089;-77
2023/10/04 03:11:27;;;;;;;8.68;3.17;;;;;;;;;;1029675;28;19914;-73
2023/10/04 03:11:58;;;;;;;2.83;1.95;;;;;;;;;;1026023;28;20030;-74
2023/10/04 03:12:28;;;;;;;12.88;2.85;;;;;;;;;;1028858;28;20026;-74
2023/10/04 03:13:01;;;;;;;7.53;4.53;;;;;;;;;;1026151;28;20516;-75
2023/10/04 03:13:32;;;;;;;12.75;2.97;;;;;;;;;;1025426;28;20126;-76
2023/10/04 03:14:06;;;;;;;1.73;1.60;;;;;;;;;;1025471;28;20073;-74
2023/10/04 03:14:37;;;;;;;12.23;3.45;;;;;;;;;;1024825;28;20027;-75
2023/10/04 03:15:10;;;;;;;1.88;1.70;;;;;;;;;;1022515;28;20026;-73
2023/10/04 03:15:44;;;;;;;11.70;3.33;;;;;;;;;;1023506;28;20030;-72
2023/10/04 03:16:15;;;;;;;4.82;2.78;;;;;;;;;;1023918;28;20521;-75